sensor_id;sensor_type;location;lat;lon;timestamp;temperature;humidity
22562;DHT22;11447;50.562;8.504;2022-12-07T00:01:11;3.40;99.90
22562;DHT22;11447;50.562;8.504;2022-12-07T00:03:41;3.50;99.90
22562;DHT22;11447;50.562;8.504;2022-12-07T00:06:09;3.50;99.90
22562;DHT22;11447;50.562;8.504;2022-12-07T00:08:36;3.50;99.90
22562;DHT22;11447;50.562;8.504;2022-12-07T00:11:07;3.50;99.90
22562;DHT22;11447;50.562;8.504;2022-12-07T00:13:37;3.50;99.90
22562;DHT22;11447;50.562;8.504;2022-12-07T00:16:13;3.50;99.90
22562;DHT22;11447;50.562;8.504;2022-12-07T00:18:43;3.50;99.90
22562;DHT22;11447;50.562;8.504;2022-12-07T00:21:11;3.50;99.90
22562;DHT22;11447;50.562;8.504;2022-12-07T00:23:38;3.50;99.90
22562;DHT22;11447;50.562;8.504;2022-12-07T00:28:34;3.50;99.90
22562;DHT22;11447;50.562;8.504;2022-12-07T00:31:02;3.60;99.90
22562;DHT22;11447;50.562;8.504;2022-12-07T00:33:29;3.60;99.90
22562;DHT22;11447;50.562;8.504;2022-12-07T00:35:56;3.60;99.90
22562;DHT22;11447;50.562;8.504;2022-12-07T00:38:23;3.60;99.90
22562;DHT22;11447;50.562;8.504;2022-12-07T00:40:56;3.60;99.90
22562;DHT22;11447;50.562;8.504;2022-12-07T00:43:23;3.70;99.90
22562;DHT22;11447;50.562;8.504;2022-12-07T00:45:50;3.60;99.90
22562;DHT22;11447;50.562;8.504;2022-12-07T00:48:22;3.70;99.90
22562;DHT22;11447;50.562;8.504;2022-12-07T00:50:48;3.70;99.90
22562;DHT22;11447;50.562;8.504;2022-12-07T00:53:19;3.70;99.90
22562;DHT22;11447;50.562;8.504;2022-12-07T00:55:50;3.70;99.90
22562;DHT22;11447;50.562;8.504;2022-12-07T00:58:19;3.70;99.90
22562;DHT22;11447;50.562;8.504;2022-12-07T01:00:46;3.70;99.90
22562;DHT22;11447;50.562;8.504;2022-12-07T01:03:15;3.70;99.90
22562;DHT22;11447;50.562;8.504;2022-12-07T01:05:49;3.70;99.90
22562;DHT22;11447;50.562;8.504;2022-12-07T01:08:16;3.70;99.90
22562;DHT22;11447;50.562;8.504;2022-12-07T01:10:42;3.70;99.90
22562;DHT22;11447;50.562;8.504;2022-12-07T01:13:09;3.70;99.90
22562;DHT22;11447;50.562;8.504;2022-12-07T01:15:38;3.70;99.90
22562;DHT22;11447;50.562;8.504;2022-12-07T01:18:05;3.80;99.90
22562;DHT22;11447;50.562;8.504;2022-12-07T01:20:31;3.80;99.90
22562;DHT22;11447;50.562;8.504;2022-12-07T01:23:00;3.80;99.90
22562;DHT22;11447;50.562;8.504;2022-12-07T01:25:27;3.80;99.90
22562;DHT22;11447;50.562;8.504;2022-12-07T01:27:54;3.80;99.90
22562;DHT22;11447;50.562;8.504;2022-12-07T01:30:22;3.80;99.90
22562;DHT22;11447;50.562;8.504;2022-12-07T01:32:51;3.90;99.90
22562;DHT22;11447;50.562;8.504;2022-12-07T01:35:18;3.90;99.90
22562;DHT22;11447;50.562;8.504;2022-12-07T01:37:45;3.90;99.90
22562;DHT22;11447;50.562;8.504;2022-12-07T01:40:13;3.90;99.90
22562;DHT22;11447;50.562;8.504;2022-12-07T01:42:42;3.90;99.90
22562;DHT22;11447;50.562;8.504;2022-12-07T01:47:47;3.90;99.90
22562;DHT22;11447;50.562;8.504;2022-12-07T01:50:15;4.00;99.90
22562;DHT22;11447;50.562;8.504;2022-12-07T01:52:42;4.00;99.90
22562;DHT22;11447;50.562;8.504;2022-12-07T01:55:11;4.00;99.90
22562;DHT22;11447;50.562;8.504;2022-12-07T01:57:41;4.00;99.90
22562;DHT22;11447;50.562;8.504;2022-12-07T02:00:12;4.00;99.90
22562;DHT22;11447;50.562;8.504;2022-12-07T02:02:48;4.10;99.90
22562;DHT22;11447;50.562;8.504;2022-12-07T02:05:16;4.00;99.90
22562;DHT22;11447;50.562;8.504;2022-12-07T02:07:43;4.10;99.90
22562;DHT22;11447;50.562;8.504;2022-12-07T02:10:11;4.00;99.90
22562;DHT22;11447;50.562;8.504;2022-12-07T02:12:40;4.10;99.90
22562;DHT22;11447;50.562;8.504;2022-12-07T02:15:08;4.10;99.90
22562;DHT22;11447;50.562;8.504;2022-12-07T02:17:59;4.10;99.90
22562;DHT22;11447;50.562;8.504;2022-12-07T02:20:30;4.00;99.90
22562;DHT22;11447;50.562;8.504;2022-12-07T02:30:49;4.00;99.90
22562;DHT22;11447;50.562;8.504;2022-12-07T02:33:22;4.00;99.90
22562;DHT22;11447;50.562;8.504;2022-12-07T02:36:16;4.00;99.90
22562;DHT22;11447;50.562;8.504;2022-12-07T02:38:45;4.10;99.90
22562;DHT22;11447;50.562;8.504;2022-12-07T02:41:18;4.10;99.90
22562;DHT22;11447;50.562;8.504;2022-12-07T02:43:50;4.10;99.90
22562;DHT22;11447;50.562;8.504;2022-12-07T02:46:22;4.10;99.90
22562;DHT22;11447;50.562;8.504;2022-12-07T02:48:49;4.00;99.90
22562;DHT22;11447;50.562;8.504;2022-12-07T02:51:19;4.10;99.90
22562;DHT22;11447;50.562;8.504;2022-12-07T02:53:46;4.10;99.90
22562;DHT22;11447;50.562;8.504;2022-12-07T02:56:35;4.10;99.90
22562;DHT22;11447;50.562;8.504;2022-12-07T02:59:10;4.10;99.90
22562;DHT22;11447;50.562;8.504;2022-12-07T03:04:28;4.10;99.90
22562;DHT22;11447;50.562;8.504;2022-12-07T03:10:00;4.10;99.90
22562;DHT22;11447;50.562;8.504;2022-12-07T03:12:31;4.20;99.90
22562;DHT22;11447;50.562;8.504;2022-12-07T03:15:01;4.20;99.90
22562;DHT22;11447;50.562;8.504;2022-12-07T03:17:29;4.10;99.90
22562;DHT22;11447;50.562;8.504;2022-12-07T03:19:59;4.20;99.90
22562;DHT22;11447;50.562;8.504;2022-12-07T03:22:28;4.20;99.90
22562;DHT22;11447;50.562;8.504;2022-12-07T03:25:00;4.20;99.90
22562;DHT22;11447;50.562;8.504;2022-12-07T03:27:31;4.20;99.90
22562;DHT22;11447;50.562;8.504;2022-12-07T03:29:59;4.20;99.90
22562;DHT22;11447;50.562;8.504;2022-12-07T03:32:29;4.20;99.90
22562;DHT22;11447;50.562;8.504;2022-12-07T03:37:29;4.20;99.90
22562;DHT22;11447;50.562;8.504;2022-12-07T03:42:29;4.20;99.90
22562;DHT22;11447;50.562;8.504;2022-12-07T03:44:57;4.10;99.90
22562;DHT22;11447;50.562;8.504;2022-12-07T03:49:55;4.10;99.90
22562;DHT22;11447;50.562;8.504;2022-12-07T03:55:20;4.10;99.90
22562;DHT22;11447;50.562;8.504;2022-12-07T03:57:51;4.10;99.90
22562;DHT22;11447;50.562;8.504;2022-12-07T04:00:19;4.10;99.90
22562;DHT22;11447;50.562;8.504;2022-12-07T04:02:46;4.20;99.90
22562;DHT22;11447;50.562;8.504;2022-12-07T04:05:13;4.20;99.90
22562;DHT22;11447;50.562;8.504;2022-12-07T04:07:40;4.20;99.90
22562;DHT22;11447;50.562;8.504;2022-12-07T04:10:07;4.20;99.90
22562;DHT22;11447;50.562;8.504;2022-12-07T04:12:38;4.20;99.90
22562;DHT22;11447;50.562;8.504;2022-12-07T04:15:08;4.20;99.90
22562;DHT22;11447;50.562;8.504;2022-12-07T04:17:35;4.20;99.90
22562;DHT22;11447;50.562;8.504;2022-12-07T04:20:02;4.20;99.90
22562;DHT22;11447;50.562;8.504;2022-12-07T04:22:30;4.20;99.90
22562;DHT22;11447;50.562;8.504;2022-12-07T04:24:57;4.20;99.90
22562;DHT22;11447;50.562;8.504;2022-12-07T04:27:23;4.20;99.90
22562;DHT22;11447;50.562;8.504;2022-12-07T04:29:52;4.20;99.90
22562;DHT22;11447;50.562;8.504;2022-12-07T04:32:19;4.20;99.90
22562;DHT22;11447;50.562;8.504;2022-12-07T04:34:48;4.20;99.90
22562;DHT22;11447;50.562;8.504;2022-12-07T04:37:20;4.20;99.90
22562;DHT22;11447;50.562;8.504;2022-12-07T04:39:47;4.20;99.90
22562;DHT22;11447;50.562;8.504;2022-12-07T04:42:14;4.20;99.90
22562;DHT22;11447;50.562;8.504;2022-12-07T04:44:40;4.20;99.90
22562;DHT22;11447;50.562;8.504;2022-12-07T04:47:07;4.20;99.90
22562;DHT22;11447;50.562;8.504;2022-12-07T04:49:33;4.30;99.90
22562;DHT22;11447;50.562;8.504;2022-12-07T04:52:02;4.20;99.90
22562;DHT22;11447;50.562;8.504;2022-12-07T04:54:29;4.20;99.90
22562;DHT22;11447;50.562;8.504;2022-12-07T04:56:55;4.30;99.90
22562;DHT22;11447;50.562;8.504;2022-12-07T04:59:22;4.30;99.90
22562;DHT22;11447;50.562;8.504;2022-12-07T05:01:49;4.30;99.90
22562;DHT22;11447;50.562;8.504;2022-12-07T05:04:15;4.30;99.90
22562;DHT22;11447;50.562;8.504;2022-12-07T05:06:42;4.30;99.90
22562;DHT22;11447;50.562;8.504;2022-12-07T05:09:09;4.30;99.90
22562;DHT22;11447;50.562;8.504;2022-12-07T05:11:38;4.30;99.90
22562;DHT22;11447;50.562;8.504;2022-12-07T05:14:07;4.30;99.90
22562;DHT22;11447;50.562;8.504;2022-12-07T05:16:34;4.30;99.90
22562;DHT22;11447;50.562;8.504;2022-12-07T05:19:03;4.30;99.90
22562;DHT22;11447;50.562;8.504;2022-12-07T05:21:30;4.40;99.90
22562;DHT22;11447;50.562;8.504;2022-12-07T05:23:56;4.40;99.90
22562;DHT22;11447;50.562;8.504;2022-12-07T05:26:25;4.40;99.90
22562;DHT22;11447;50.562;8.504;2022-12-07T05:28:53;4.40;99.90
22562;DHT22;11447;50.562;8.504;2022-12-07T05:31:22;4.40;99.90
22562;DHT22;11447;50.562;8.504;2022-12-07T05:33:51;4.40;99.90
22562;DHT22;11447;50.562;8.504;2022-12-07T05:36:18;4.40;99.90
22562;DHT22;11447;50.562;8.504;2022-12-07T05:38:49;4.40;99.90
22562;DHT22;11447;50.562;8.504;2022-12-07T05:41:18;4.40;99.90
22562;DHT22;11447;50.562;8.504;2022-12-07T05:44:04;4.50;99.90
22562;DHT22;11447;50.562;8.504;2022-12-07T05:46:31;4.40;99.90
22562;DHT22;11447;50.562;8.504;2022-12-07T05:48:57;4.40;99.90
22562;DHT22;11447;50.562;8.504;2022-12-07T05:51:24;4.50;99.90
22562;DHT22;11447;50.562;8.504;2022-12-07T05:53:50;4.50;99.90
22562;DHT22;11447;50.562;8.504;2022-12-07T05:56:17;4.50;99.90
22562;DHT22;11447;50.562;8.504;2022-12-07T05:58:44;4.50;99.90
22562;DHT22;11447;50.562;8.504;2022-12-07T06:01:29;4.50;99.90
22562;DHT22;11447;50.562;8.504;2022-12-07T06:03:56;4.50;99.90
22562;DHT22;11447;50.562;8.504;2022-12-07T06:06:23;4.50;99.90
22562;DHT22;11447;50.562;8.504;2022-12-07T06:08:49;4.50;99.90
22562;DHT22;11447;50.562;8.504;2022-12-07T06:11:16;4.50;99.90
22562;DHT22;11447;50.562;8.504;2022-12-07T06:14:01;4.50;99.90
22562;DHT22;11447;50.562;8.504;2022-12-07T06:16:28;4.50;99.90
22562;DHT22;11447;50.562;8.504;2022-12-07T06:18:57;4.50;99.90
22562;DHT22;11447;50.562;8.504;2022-12-07T06:21:23;4.50;99.90
22562;DHT22;11447;50.562;8.504;2022-12-07T06:23:55;4.60;99.90
22562;DHT22;11447;50.562;8.504;2022-12-07T06:26:24;4.50;99.90
22562;DHT22;11447;50.562;8.504;2022-12-07T06:28:53;4.60;99.90
22562;DHT22;11447;50.562;8.504;2022-12-07T06:31:20;4.60;99.90
22562;DHT22;11447;50.562;8.504;2022-12-07T06:33:46;4.50;99.90
22562;DHT22;11447;50.562;8.504;2022-12-07T06:36:13;4.60;99.90
22562;DHT22;11447;50.562;8.504;2022-12-07T06:38:42;4.60;99.90
22562;DHT22;11447;50.562;8.504;2022-12-07T06:41:09;4.60;99.90
22562;DHT22;11447;50.562;8.504;2022-12-07T06:43:35;4.60;99.90
22562;DHT22;11447;50.562;8.504;2022-12-07T06:46:02;4.60;99.90
22562;DHT22;11447;50.562;8.504;2022-12-07T06:48:31;4.60;99.90
22562;DHT22;11447;50.562;8.504;2022-12-07T06:51:00;4.60;99.90
22562;DHT22;11447;50.562;8.504;2022-12-07T06:53:27;4.60;99.90
22562;DHT22;11447;50.562;8.504;2022-12-07T06:55:53;4.60;99.90
22562;DHT22;11447;50.562;8.504;2022-12-07T06:58:20;4.60;99.90
22562;DHT22;11447;50.562;8.504;2022-12-07T07:00:47;4.60;99.90
22562;DHT22;11447;50.562;8.504;2022-12-07T07:03:14;4.60;99.90
22562;DHT22;11447;50.562;8.504;2022-12-07T07:05:41;4.60;99.90
22562;DHT22;11447;50.562;8.504;2022-12-07T07:08:10;4.50;99.90
22562;DHT22;11447;50.562;8.504;2022-12-07T07:10:52;4.50;99.90
22562;DHT22;11447;50.562;8.504;2022-12-07T07:13:21;4.50;99.90
22562;DHT22;11447;50.562;8.504;2022-12-07T07:15:50;4.50;99.90
22562;DHT22;11447;50.562;8.504;2022-12-07T07:18:21;4.50;99.90
22562;DHT22;11447;50.562;8.504;2022-12-07T07:20:50;4.50;99.90
22562;DHT22;11447;50.562;8.504;2022-12-07T07:23:19;4.50;99.90
22562;DHT22;11447;50.562;8.504;2022-12-07T07:25:48;4.50;99.90
22562;DHT22;11447;50.562;8.504;2022-12-07T07:28:15;4.50;99.90
22562;DHT22;11447;50.562;8.504;2022-12-07T07:30:42;4.50;99.90
22562;DHT22;11447;50.562;8.504;2022-12-07T07:33:09;4.50;99.90
22562;DHT22;11447;50.562;8.504;2022-12-07T07:35:37;4.50;99.90
22562;DHT22;11447;50.562;8.504;2022-12-07T07:38:04;4.50;99.90
22562;DHT22;11447;50.562;8.504;2022-12-07T07:40:30;4.50;99.90
22562;DHT22;11447;50.562;8.504;2022-12-07T07:42:57;4.50;99.90
22562;DHT22;11447;50.562;8.504;2022-12-07T07:45:24;4.40;99.90
22562;DHT22;11447;50.562;8.504;2022-12-07T07:47:53;4.40;99.90
22562;DHT22;11447;50.562;8.504;2022-12-07T07:50:21;4.40;99.90
22562;DHT22;11447;50.562;8.504;2022-12-07T07:52:48;4.40;99.90
22562;DHT22;11447;50.562;8.504;2022-12-07T07:55:18;4.40;99.90
22562;DHT22;11447;50.562;8.504;2022-12-07T07:57:44;4.40;99.90
22562;DHT22;11447;50.562;8.504;2022-12-07T08:00:19;4.40;99.90
22562;DHT22;11447;50.562;8.504;2022-12-07T08:02:49;4.40;99.90
22562;DHT22;11447;50.562;8.504;2022-12-07T08:05:18;4.40;99.90
22562;DHT22;11447;50.562;8.504;2022-12-07T08:07:44;4.40;99.90
22562;DHT22;11447;50.562;8.504;2022-12-07T08:10:12;4.40;99.90
22562;DHT22;11447;50.562;8.504;2022-12-07T08:12:39;4.40;99.90
22562;DHT22;11447;50.562;8.504;2022-12-07T08:15:27;4.40;99.90
22562;DHT22;11447;50.562;8.504;2022-12-07T08:17:56;4.40;99.90
22562;DHT22;11447;50.562;8.504;2022-12-07T08:20:23;4.30;99.90
22562;DHT22;11447;50.562;8.504;2022-12-07T08:22:49;4.40;99.90
22562;DHT22;11447;50.562;8.504;2022-12-07T08:25:16;4.40;99.90
22562;DHT22;11447;50.562;8.504;2022-12-07T08:27:42;4.40;99.90
22562;DHT22;11447;50.562;8.504;2022-12-07T08:30:09;4.40;99.90
22562;DHT22;11447;50.562;8.504;2022-12-07T08:32:36;4.40;99.90
22562;DHT22;11447;50.562;8.504;2022-12-07T08:37:51;4.40;99.90
22562;DHT22;11447;50.562;8.504;2022-12-07T08:40:18;4.50;99.90
22562;DHT22;11447;50.562;8.504;2022-12-07T08:42:49;4.50;99.90
22562;DHT22;11447;50.562;8.504;2022-12-07T08:45:16;4.50;99.90
22562;DHT22;11447;50.562;8.504;2022-12-07T08:47:53;4.50;99.90
22562;DHT22;11447;50.562;8.504;2022-12-07T08:50:21;4.60;99.90
22562;DHT22;11447;50.562;8.504;2022-12-07T08:52:49;4.60;99.90
22562;DHT22;11447;50.562;8.504;2022-12-07T08:55:19;4.60;99.90
22562;DHT22;11447;50.562;8.504;2022-12-07T08:57:51;4.70;99.90
22562;DHT22;11447;50.562;8.504;2022-12-07T09:00:23;4.70;99.90
22562;DHT22;11447;50.562;8.504;2022-12-07T09:02:53;4.70;99.90
22562;DHT22;11447;50.562;8.504;2022-12-07T09:05:19;4.80;99.90
22562;DHT22;11447;50.562;8.504;2022-12-07T09:07:47;4.90;99.90
22562;DHT22;11447;50.562;8.504;2022-12-07T09:10:17;4.90;99.90
22562;DHT22;11447;50.562;8.504;2022-12-07T09:12:46;5.00;99.90
22562;DHT22;11447;50.562;8.504;2022-12-07T09:15:13;5.10;99.90
22562;DHT22;11447;50.562;8.504;2022-12-07T09:17:39;5.10;99.90
22562;DHT22;11447;50.562;8.504;2022-12-07T09:20:06;5.10;99.90
22562;DHT22;11447;50.562;8.504;2022-12-07T09:22:35;5.10;99.90
22562;DHT22;11447;50.562;8.504;2022-12-07T09:25:05;5.10;99.90
22562;DHT22;11447;50.562;8.504;2022-12-07T09:27:31;5.10;99.90
22562;DHT22;11447;50.562;8.504;2022-12-07T09:29:58;5.20;99.90
22562;DHT22;11447;50.562;8.504;2022-12-07T09:32:25;5.20;99.90
22562;DHT22;11447;50.562;8.504;2022-12-07T09:34:51;5.20;99.90
22562;DHT22;11447;50.562;8.504;2022-12-07T09:37:18;5.20;99.90
22562;DHT22;11447;50.562;8.504;2022-12-07T09:39:45;5.20;99.90
22562;DHT22;11447;50.562;8.504;2022-12-07T09:42:29;5.20;99.90
22562;DHT22;11447;50.562;8.504;2022-12-07T09:44:58;5.20;99.90
22562;DHT22;11447;50.562;8.504;2022-12-07T09:47:28;5.20;99.90
22562;DHT22;11447;50.562;8.504;2022-12-07T09:49:59;5.30;99.90
22562;DHT22;11447;50.562;8.504;2022-12-07T09:52:29;5.30;99.90
22562;DHT22;11447;50.562;8.504;2022-12-07T09:55:08;5.40;99.90
22562;DHT22;11447;50.562;8.504;2022-12-07T09:57:35;5.40;99.90
22562;DHT22;11447;50.562;8.504;2022-12-07T10:00:06;5.40;99.90
22562;DHT22;11447;50.562;8.504;2022-12-07T10:05:02;5.50;99.90
22562;DHT22;11447;50.562;8.504;2022-12-07T10:07:30;5.40;99.90
22562;DHT22;11447;50.562;8.504;2022-12-07T10:09:56;5.50;99.90
22562;DHT22;11447;50.562;8.504;2022-12-07T10:12:23;5.40;99.90
22562;DHT22;11447;50.562;8.504;2022-12-07T10:14:54;5.50;99.90
22562;DHT22;11447;50.562;8.504;2022-12-07T10:20:25;5.50;99.90
22562;DHT22;11447;50.562;8.504;2022-12-07T10:23:01;5.50;99.90
22562;DHT22;11447;50.562;8.504;2022-12-07T10:25:29;5.50;99.90
22562;DHT22;11447;50.562;8.504;2022-12-07T10:33:29;5.60;99.90
22562;DHT22;11447;50.562;8.504;2022-12-07T10:35:56;5.70;99.90
22562;DHT22;11447;50.562;8.504;2022-12-07T10:38:24;5.80;99.90
22562;DHT22;11447;50.562;8.504;2022-12-07T10:41:05;5.90;99.90
22562;DHT22;11447;50.562;8.504;2022-12-07T10:43:33;6.10;99.90
22562;DHT22;11447;50.562;8.504;2022-12-07T10:46:09;6.20;99.90
22562;DHT22;11447;50.562;8.504;2022-12-07T10:48:53;6.20;99.90
22562;DHT22;11447;50.562;8.504;2022-12-07T10:53:54;6.10;99.90
22562;DHT22;11447;50.562;8.504;2022-12-07T11:06:35;6.00;99.90
22562;DHT22;11447;50.562;8.504;2022-12-07T11:24:25;6.20;99.90
22562;DHT22;11447;50.562;8.504;2022-12-07T11:29:37;6.40;99.90
22562;DHT22;11447;50.562;8.504;2022-12-07T11:32:21;6.50;99.90
22562;DHT22;11447;50.562;8.504;2022-12-07T11:35:04;6.50;99.90
22562;DHT22;11447;50.562;8.504;2022-12-07T11:37:34;6.50;99.90
22562;DHT22;11447;50.562;8.504;2022-12-07T11:40:39;6.50;99.90
22562;DHT22;11447;50.562;8.504;2022-12-07T11:45:44;6.40;99.90
22562;DHT22;11447;50.562;8.504;2022-12-07T11:50:40;6.40;99.90
22562;DHT22;11447;50.562;8.504;2022-12-07T11:55:50;6.30;99.90
22562;DHT22;11447;50.562;8.504;2022-12-07T12:03:47;6.40;99.90
22562;DHT22;11447;50.562;8.504;2022-12-07T12:06:19;6.40;99.90
22562;DHT22;11447;50.562;8.504;2022-12-07T12:08:47;6.50;99.90
22562;DHT22;11447;50.562;8.504;2022-12-07T12:14:28;6.50;99.90
22562;DHT22;11447;50.562;8.504;2022-12-07T12:19:55;6.50;99.90
22562;DHT22;11447;50.562;8.504;2022-12-07T12:22:32;6.50;99.90
22562;DHT22;11447;50.562;8.504;2022-12-07T12:25:02;6.40;99.90
22562;DHT22;11447;50.562;8.504;2022-12-07T12:27:31;6.50;99.90
22562;DHT22;11447;50.562;8.504;2022-12-07T12:29:59;6.50;99.90
22562;DHT22;11447;50.562;8.504;2022-12-07T12:34:57;6.40;99.90
22562;DHT22;11447;50.562;8.504;2022-12-07T12:42:47;6.50;99.90
22562;DHT22;11447;50.562;8.504;2022-12-07T12:45:18;6.50;99.90
22562;DHT22;11447;50.562;8.504;2022-12-07T12:47:58;6.50;99.90
22562;DHT22;11447;50.562;8.504;2022-12-07T12:50:37;6.50;99.90
22562;DHT22;11447;50.562;8.504;2022-12-07T13:00:44;6.50;99.90
22562;DHT22;11447;50.562;8.504;2022-12-07T13:03:27;6.50;99.90
22562;DHT22;11447;50.562;8.504;2022-12-07T13:08:45;6.50;99.90
22562;DHT22;11447;50.562;8.504;2022-12-07T13:16:42;6.60;99.90
22562;DHT22;11447;50.562;8.504;2022-12-07T13:21:56;6.60;99.90
22562;DHT22;11447;50.562;8.504;2022-12-07T13:24:23;6.50;99.90
22562;DHT22;11447;50.562;8.504;2022-12-07T13:26:51;6.50;99.90
22562;DHT22;11447;50.562;8.504;2022-12-07T13:29:24;6.50;99.90
22562;DHT22;11447;50.562;8.504;2022-12-07T13:31:51;6.50;99.90
22562;DHT22;11447;50.562;8.504;2022-12-07T13:34:34;6.40;99.90
22562;DHT22;11447;50.562;8.504;2022-12-07T13:39:44;6.40;99.90
22562;DHT22;11447;50.562;8.504;2022-12-07T13:42:17;6.40;99.90
22562;DHT22;11447;50.562;8.504;2022-12-07T13:44:45;6.40;99.90
22562;DHT22;11447;50.562;8.504;2022-12-07T13:47:13;6.30;99.90
22562;DHT22;11447;50.562;8.504;2022-12-07T13:49:49;6.30;99.90
22562;DHT22;11447;50.562;8.504;2022-12-07T13:52:29;6.30;99.90
22562;DHT22;11447;50.562;8.504;2022-12-07T13:54:59;6.30;99.90
22562;DHT22;11447;50.562;8.504;2022-12-07T13:57:30;6.20;99.90
22562;DHT22;11447;50.562;8.504;2022-12-07T13:59:57;6.20;99.90
22562;DHT22;11447;50.562;8.504;2022-12-07T14:05:12;6.20;99.90
22562;DHT22;11447;50.562;8.504;2022-12-07T14:07:59;6.20;99.90
22562;DHT22;11447;50.562;8.504;2022-12-07T14:10:30;6.20;99.90
22562;DHT22;11447;50.562;8.504;2022-12-07T14:12:59;6.20;99.90
22562;DHT22;11447;50.562;8.504;2022-12-07T14:15:33;6.30;99.90
22562;DHT22;11447;50.562;8.504;2022-12-07T14:18:02;6.30;99.90
22562;DHT22;11447;50.562;8.504;2022-12-07T14:20:35;6.30;99.90
22562;DHT22;11447;50.562;8.504;2022-12-07T14:23:06;6.30;99.90
22562;DHT22;11447;50.562;8.504;2022-12-07T14:25:48;6.20;99.90
22562;DHT22;11447;50.562;8.504;2022-12-07T14:28:27;6.30;99.90
22562;DHT22;11447;50.562;8.504;2022-12-07T14:30:54;6.30;99.90
22562;DHT22;11447;50.562;8.504;2022-12-07T14:33:21;6.20;99.90
22562;DHT22;11447;50.562;8.504;2022-12-07T14:35:48;6.10;99.90
22562;DHT22;11447;50.562;8.504;2022-12-07T14:38:15;6.10;99.90
22562;DHT22;11447;50.562;8.504;2022-12-07T14:40:44;6.10;99.90
22562;DHT22;11447;50.562;8.504;2022-12-07T14:43:12;6.10;99.90
22562;DHT22;11447;50.562;8.504;2022-12-07T14:45:39;6.10;99.90
22562;DHT22;11447;50.562;8.504;2022-12-07T14:48:12;6.20;99.90
22562;DHT22;11447;50.562;8.504;2022-12-07T14:51:01;6.20;99.90
22562;DHT22;11447;50.562;8.504;2022-12-07T14:53:49;6.10;99.90
22562;DHT22;11447;50.562;8.504;2022-12-07T14:56:23;6.10;99.90
22562;DHT22;11447;50.562;8.504;2022-12-07T14:58:50;6.10;99.90
22562;DHT22;11447;50.562;8.504;2022-12-07T15:01:18;6.00;99.90
22562;DHT22;11447;50.562;8.504;2022-12-07T15:03:45;6.10;99.90
22562;DHT22;11447;50.562;8.504;2022-12-07T15:06:17;6.00;99.90
22562;DHT22;11447;50.562;8.504;2022-12-07T15:08:46;6.00;99.90
22562;DHT22;11447;50.562;8.504;2022-12-07T15:11:13;6.00;99.90
22562;DHT22;11447;50.562;8.504;2022-12-07T15:13:40;6.00;99.90
22562;DHT22;11447;50.562;8.504;2022-12-07T15:16:28;6.00;99.90
22562;DHT22;11447;50.562;8.504;2022-12-07T15:19:15;5.90;99.90
22562;DHT22;11447;50.562;8.504;2022-12-07T15:21:54;5.90;99.90
22562;DHT22;11447;50.562;8.504;2022-12-07T15:24:21;5.90;99.90
22562;DHT22;11447;50.562;8.504;2022-12-07T15:26:48;5.90;99.90
22562;DHT22;11447;50.562;8.504;2022-12-07T15:29:17;5.80;99.90
22562;DHT22;11447;50.562;8.504;2022-12-07T15:31:51;5.80;99.90
22562;DHT22;11447;50.562;8.504;2022-12-07T15:34:23;5.80;99.90
22562;DHT22;11447;50.562;8.504;2022-12-07T15:36:51;5.80;99.90
22562;DHT22;11447;50.562;8.504;2022-12-07T15:39:17;5.70;99.90
22562;DHT22;11447;50.562;8.504;2022-12-07T15:41:47;5.70;99.90
22562;DHT22;11447;50.562;8.504;2022-12-07T15:44:14;5.70;99.90
22562;DHT22;11447;50.562;8.504;2022-12-07T15:47:03;5.70;99.90
22562;DHT22;11447;50.562;8.504;2022-12-07T15:49:30;5.60;99.90
22562;DHT22;11447;50.562;8.504;2022-12-07T15:51:56;5.60;99.90
22562;DHT22;11447;50.562;8.504;2022-12-07T15:54:24;5.60;99.90
22562;DHT22;11447;50.562;8.504;2022-12-07T15:56:51;5.60;99.90
22562;DHT22;11447;50.562;8.504;2022-12-07T15:59:18;5.50;99.90
22562;DHT22;11447;50.562;8.504;2022-12-07T16:01:44;5.50;99.90
22562;DHT22;11447;50.562;8.504;2022-12-07T16:04:11;5.50;99.90
22562;DHT22;11447;50.562;8.504;2022-12-07T16:06:38;5.50;99.90
22562;DHT22;11447;50.562;8.504;2022-12-07T16:09:05;5.50;99.90
22562;DHT22;11447;50.562;8.504;2022-12-07T16:11:32;5.50;99.90
22562;DHT22;11447;50.562;8.504;2022-12-07T16:13:59;5.50;99.90
22562;DHT22;11447;50.562;8.504;2022-12-07T16:16:26;5.40;99.90
22562;DHT22;11447;50.562;8.504;2022-12-07T16:18:54;5.40;99.90
22562;DHT22;11447;50.562;8.504;2022-12-07T16:21:20;5.40;99.90
22562;DHT22;11447;50.562;8.504;2022-12-07T16:23:51;5.40;99.90
22562;DHT22;11447;50.562;8.504;2022-12-07T16:26:21;5.40;99.90
22562;DHT22;11447;50.562;8.504;2022-12-07T16:28:48;5.40;99.90
22562;DHT22;11447;50.562;8.504;2022-12-07T16:31:16;5.40;99.90
22562;DHT22;11447;50.562;8.504;2022-12-07T16:33:43;5.40;99.90
22562;DHT22;11447;50.562;8.504;2022-12-07T16:36:10;5.40;99.90
22562;DHT22;11447;50.562;8.504;2022-12-07T16:38:37;5.40;99.90
22562;DHT22;11447;50.562;8.504;2022-12-07T16:41:07;5.40;99.90
22562;DHT22;11447;50.562;8.504;2022-12-07T16:43:36;5.30;99.90
22562;DHT22;11447;50.562;8.504;2022-12-07T16:46:03;5.30;99.90
22562;DHT22;11447;50.562;8.504;2022-12-07T16:48:30;5.30;99.90
22562;DHT22;11447;50.562;8.504;2022-12-07T16:50:57;5.30;99.90
22562;DHT22;11447;50.562;8.504;2022-12-07T16:53:24;5.30;99.90
22562;DHT22;11447;50.562;8.504;2022-12-07T16:55:53;5.30;99.90
22562;DHT22;11447;50.562;8.504;2022-12-07T16:58:19;5.30;99.90
22562;DHT22;11447;50.562;8.504;2022-12-07T17:00:48;5.30;99.90
22562;DHT22;11447;50.562;8.504;2022-12-07T17:03:15;5.30;99.90
22562;DHT22;11447;50.562;8.504;2022-12-07T17:05:46;5.30;99.90
22562;DHT22;11447;50.562;8.504;2022-12-07T17:08:13;5.30;99.90
22562;DHT22;11447;50.562;8.504;2022-12-07T17:10:41;5.30;99.90
22562;DHT22;11447;50.562;8.504;2022-12-07T17:13:08;5.30;99.90
22562;DHT22;11447;50.562;8.504;2022-12-07T17:16:00;5.30;99.90
22562;DHT22;11447;50.562;8.504;2022-12-07T17:18:30;5.30;99.90
22562;DHT22;11447;50.562;8.504;2022-12-07T17:21:07;5.30;99.90
22562;DHT22;11447;50.562;8.504;2022-12-07T17:23:37;5.30;99.90
22562;DHT22;11447;50.562;8.504;2022-12-07T17:26:07;5.30;99.90
22562;DHT22;11447;50.562;8.504;2022-12-07T17:28:34;5.30;99.90
22562;DHT22;11447;50.562;8.504;2022-12-07T17:31:01;5.30;99.90
22562;DHT22;11447;50.562;8.504;2022-12-07T17:33:31;5.30;99.90
22562;DHT22;11447;50.562;8.504;2022-12-07T17:35:57;5.30;99.90
22562;DHT22;11447;50.562;8.504;2022-12-07T17:38:24;5.30;99.90
22562;DHT22;11447;50.562;8.504;2022-12-07T17:40:51;5.30;99.90
22562;DHT22;11447;50.562;8.504;2022-12-07T17:43:18;5.20;99.90
22562;DHT22;11447;50.562;8.504;2022-12-07T17:45:44;5.20;99.90
22562;DHT22;11447;50.562;8.504;2022-12-07T17:48:11;5.30;99.90
22562;DHT22;11447;50.562;8.504;2022-12-07T17:50:38;5.30;99.90
22562;DHT22;11447;50.562;8.504;2022-12-07T17:53:23;5.30;99.90
22562;DHT22;11447;50.562;8.504;2022-12-07T17:55:52;5.30;99.90
22562;DHT22;11447;50.562;8.504;2022-12-07T17:58:38;5.20;99.90
22562;DHT22;11447;50.562;8.504;2022-12-07T18:01:07;5.20;99.90
22562;DHT22;11447;50.562;8.504;2022-12-07T18:03:34;5.20;99.90
22562;DHT22;11447;50.562;8.504;2022-12-07T18:06:01;5.20;99.90